• Join FlightAware (Why Join?)
  • Login
  • US Flag 
02:15PM EDT


 

Airport Tracker/Info


-or-


 

Live Flight TrackerFlight Track Log ✈ N860BA ✈ 13-Oct-2013 ✈ KVNY - KSJC

Flight Track Log - Related Links

Times and Time Zones

All times are in EDT time to prevent confusion due to time zone crossing. See the N860BA flight status page for this flight to view local times or setup timezone preferences in your user account.

Time Position Orientation Groundspeed Altitude Reporting Facility
EDT Latitude Longitude Course Direction KTS MPH feet Rate Location/Type
04:59PM 34.1667 -118.4833 259° West 181 208 2,000  Level Southern California TRACON
05:01PM 34.1444 -118.6178 259° West 229 264 8,500 2,940 Climbing Los Angeles Center
05:02PM 34.2103 -118.6111 North 235 270 11,600 2,340 Climbing Los Angeles Center
05:03PM 34.2692 -118.6383 339° North 229 264 13,400 1,380 Climbing Los Angeles Center
05:04PM 34.3439 -118.6711 340° North 281 323 14,500 1,140 Climbing Los Angeles Center
05:05PM 34.4289 -118.7042 342° North 322 371 15,800 1,200 Climbing Los Angeles Center
05:06PM 34.5211 -118.7428 341° North 350 403 17,100 1,740 Climbing Los Angeles Center
05:07PM 34.6339 -118.7892 341° North 357 411 19,400 1,980 Climbing Los Angeles Center
05:08PM 34.7267 -118.8300 340° North 357 411 21,300 1,740 Climbing Los Angeles Center
05:09PM 34.8181 -118.8722 339° North 352 405 23,100 1,380 Climbing Los Angeles Center
05:10PM 34.8997 -118.9422 325° Northwest 343 395 24,200 840 Climbing Los Angeles Center
05:11PM 34.9842 -119.0125 326° Northwest 368 423 24,900 660 Climbing Los Angeles Center
05:12PM 35.0733 -119.0850 326° Northwest 387 445 25,600 480 Climbing Los Angeles Center
05:13PM 35.1594 -119.1681 322° Northwest 402 463 26,000 180 Climbing Los Angeles Center
05:14PM 35.2231 -119.3133 298° West 405 466 26,000  Level Los Angeles Center
05:15PM 35.2769 -119.4356 298° West 408 470 26,000  Level Los Angeles Center
05:16PM 35.3342 -119.5592 300° West 417 480 26,000  Level Los Angeles Center
05:17PM 35.3897 -119.6842 299° West 419 482 26,000  Level Los Angeles Center
05:18PM 35.4444 -119.8092 298° West 419 482 26,000  Level Los Angeles Center
05:19PM 35.5117 -119.9569 299° West 416 479 26,000  Level Los Angeles Center
05:20PM 35.5669 -120.0822 299° West 421 484 26,000  Level Los Angeles Center
05:22PM 35.6261 -120.2164 299° West 420 483 26,000  Level Los Angeles Center
05:22PM 35.6547 -120.2814 298° West 421 484 26,000  Level Oakland Center
05:23PM 35.7100 -120.4058 299° West 421 484 26,000  Level Oakland Center
05:24PM 35.7772 -120.5558 299° West 420 483 26,000 -240 Level Oakland Center
05:25PM 35.8542 -120.6619 312° West 420 483 25,600 -540 Descending Oakland Center
05:26PM 35.9397 -120.7664 315° West 432 497 24,900 -840 Descending Oakland Center
05:27PM 36.0247 -120.8739 314° West 437 503 24,000 -840 Descending Oakland Center
05:28PM 36.1122 -120.9819 315° West 443 510 23,200 -840 Descending Oakland Center
05:29PM 36.1992 -121.0922 314° West 447 514 22,400 -840 Descending Oakland Center
05:30PM 36.2858 -121.2025 314° West 448 516 21,600 -900 Descending Oakland Center
05:31PM 36.3881 -121.3322 314° West 441 507 20,600 -900 Descending Oakland Center
05:32PM 36.4922 -121.3969 333° Northwest 433 498 19,800 -1,260 Descending Oakland Center
05:33PM 36.6033 -121.4297 347° North 411 473 18,100 -2,460 Descending Oakland Center
05:34PM 36.7058 -121.4625 346° North 385 443 14,800 -2,700 Descending Oakland Center
05:35PM 36.8028 -121.4922 346° North 359 413 12,600 -1,980 Descending Oakland Center
05:36PM 36.8881 -121.5408 335° Northwest 306 352 10,800 -1,680 Descending Oakland Center
05:38PM 36.9553 -121.5858 332° Northwest 282 325 9,200 -1,620 Descending Oakland Center
05:39PM 37.0186 -121.6264 333° Northwest 263 303 7,600 -1,320 Descending Oakland Center
05:40PM 37.0786 -121.6683 331° Northwest 251 289 6,600 -1,020 Descending Oakland Center
05:41PM 37.1408 -121.7103 332° Northwest 253 291 5,500 -1,320 Descending Oakland Center
05:42PM 37.1986 -121.7525 330° Northwest 248 285 3,900 -1,320 Descending Oakland Center
05:43PM 37.2411 -121.7978 320° Northwest 220 253 2,800 -780 Descending Oakland Center
05:44PM 37.2786 -121.8408 318° Northwest 198 228 2,400 -840 Descending Oakland Center
05:45PM 37.3192 -121.8853 319° Northwest 176 203 1,200 -1,080 Descending Oakland Center
05:46PM 37.3514 -121.9192 320° Northwest 161 185 300 -900 Descending Oakland Center
05:48PM 37.3500 -121.9167 North  Level FlightAware Approximate